Time;durP1;ratioP1;P1;durP2;ratioP2;P2;SDS_P1;SDS_P2;PMS_P1;PMS_P2;Temp;Humidity;BMP_temperature;BMP_pressure;BME280_temperature;BME280_humidity;BME280_pressure;Samples;Min_cycle;Max_cycle;Signal;HPM_P1;HPM_P2
2023/01/06 00:01:53;;;;;;;3.78;2.10;;;9.00;54.50;;;7.86;56.61;101781.75;12247774;19;20019;-82
2023/01/06 00:06:00;;;;;;;2.15;1.92;;;9.00;54.50;;;7.62;56.69;101754.66;12249324;19;20010;-82
2023/01/06 00:10:02;;;;;;;3.05;1.98;;;8.90;54.50;;;7.51;56.67;101741.94;12248023;19;20038;-81
2023/01/06 00:14:04;;;;;;;5.45;3.22;;;8.80;54.40;;;7.46;56.71;101752.44;12246230;19;20031;-82
2023/01/06 00:18:06;;;;;;;4.20;3.22;;;8.80;54.20;;;7.43;56.41;101746.50;12250332;19;20022;-81
2023/01/06 00:22:08;;;;;;;3.58;2.30;;;8.70;54.10;;;7.42;56.35;101770.75;12248794;19;20043;-82
2023/01/06 00:26:10;;;;;;;2.17;1.80;;;8.60;54.00;;;7.29;56.59;101762.41;12250288;19;20601;-81
2023/01/06 00:30:12;;;;;;;1.30;1.20;;;8.50;54.30;;;7.29;56.73;101765.88;12249151;19;20018;-82
2023/01/06 00:34:14;;;;;;;2.03;1.35;;;8.40;54.50;;;7.20;56.77;101749.66;12247322;19;20019;-82
2023/01/06 00:38:16;;;;;;;1.10;1.00;;;8.40;54.70;;;7.26;56.77;101760.75;12250183;19;20020;-81
2023/01/06 00:42:18;;;;;;;1.20;0.82;;;8.30;54.80;;;7.20;56.57;101754.84;12250408;19;20043;-81
2023/01/06 00:46:21;;;;;;;2.10;1.00;;;8.30;54.70;;;7.11;56.62;101742.94;12260129;19;20071;-83
2023/01/06 00:50:23;;;;;;;0.80;0.80;;;8.50;54.90;;;7.11;56.87;101745.53;12256813;19;20007;-83
2023/01/06 00:54:25;;;;;;;1.00;0.80;;;8.30;54.90;;;7.17;56.72;101757.53;12247245;19;20023;-82
2023/01/06 00:58:31;;;;;;;2.30;0.82;;;8.30;54.90;;;7.13;56.90;101743.75;12247600;19;20018;-81
2023/01/06 01:02:33;;;;;;;;;;;8.30;54.90;;;7.04;56.77;101742.22;12243935;19;20018;-82
2023/01/06 01:06:35;;;;;;;0.68;0.68;;;8.30;54.80;;;7.00;56.70;101739.75;12246826;19;19934;-82
2023/01/06 01:10:37;;;;;;;1.20;0.65;;;8.20;54.80;;;7.00;56.91;101745.81;12243514;19;20540;-82
2023/01/06 01:14:57;;;;;;;1.15;0.77;;;8.30;55.00;;;6.98;56.77;101762.31;12243241;19;20034;-81
2023/01/06 01:18:59;;;;;;;0.93;0.80;;;8.10;55.10;;;6.86;56.78;101738.34;12245991;19;20011;-81
2023/01/06 01:23:01;;;;;;;2.03;1.00;;;8.10;55.10;;;6.89;56.82;101745.19;12244712;19;20473;-82
2023/01/06 01:27:02;;;;;;;1.67;0.77;;;8.10;55.10;;;6.92;56.96;101744.28;12247521;19;20007;-82
2023/01/06 01:31:04;;;;;;;2.55;0.73;;;8.10;55.00;;;6.86;56.84;101734.91;12243128;19;20010;-81
2023/01/06 01:35:07;;;;;;;1.02;0.70;;;8.10;55.00;;;6.85;57.04;101734.00;12242113;19;20026;-81
2023/01/06 01:39:10;;;;;;;0.70;0.70;;;8.10;55.00;;;6.88;56.83;101746.06;12244974;19;20489;-81
2023/01/06 01:43:13;;;;;;;0.73;0.73;;;8.00;54.80;;;6.79;56.80;101741.09;12244175;19;20082;-82
2023/01/06 01:47:38;;;;;;;0.80;0.73;;;8.00;54.90;;;6.66;56.87;101730.16;12247232;19;20014;-81
2023/01/06 01:51:45;;;;;;;0.65;0.65;;;7.90;54.90;;;6.30;56.83;101672.16;12240531;19;20039;-81
2023/01/06 01:55:49;;;;;;;0.80;0.80;;;7.90;55.00;;;6.65;57.03;101724.09;12251905;19;20587;-82
2023/01/06 01:59:52;;;;;;;0.75;0.75;;;8.00;55.10;;;6.62;56.91;101728.53;12255974;19;20034;-82
2023/01/06 02:03:54;;;;;;;1.83;0.65;;;8.00;55.20;;;6.56;56.83;101732.13;12252262;19;20014;-82
2023/01/06 02:07:59;;;;;;;0.70;0.70;;;8.00;55.40;;;6.53;56.82;101729.56;12255126;19;20342;-81
2023/01/06 02:12:02;;;;;;;0.60;0.60;;;7.80;55.40;;;6.55;57.01;101716.56;12250411;19;20172;-81
2023/01/06 02:16:36;;;;;;;0.55;0.55;;;8.00;55.70;;;6.58;56.95;101716.50;12254470;19;20011;-82
2023/01/06 02:20:56;;;;;;;0.90;0.73;;;7.70;55.70;;;6.57;56.98;101718.22;12254601;19;20018;-82
2023/01/06 02:25:42;;;;;;;0.65;0.65;;;7.90;55.70;;;6.54;57.17;101720.06;12251588;19;20039;-81
2023/01/06 02:30:34;;;;;;;0.93;0.70;;;7.70;55.80;;;6.49;57.16;101707.19;12252211;19;20018;-81
2023/01/06 02:34:47;;;;;;;0.90;0.70;;;7.70;55.80;;;6.55;57.13;101717.41;12251250;19;20019;-81
2023/01/06 02:39:18;;;;;;;1.30;0.82;;;7.70;55.80;;;6.54;57.26;101720.06;12255425;19;20023;-81
2023/01/06 02:43:45;;;;;;;0.90;0.82;;;7.70;55.90;;;6.53;57.17;101701.00;12253456;19;20010;-81
2023/01/06 02:48:23;;;;;;;1.40;0.80;;;7.70;55.90;;;6.45;57.50;101687.38;12252575;19;20027;-81
2023/01/06 02:52:37;;;;;;;1.02;0.80;;;7.70;55.90;;;6.49;57.33;101688.16;12253261;19;20021;-81
2023/01/06 02:56:52;;;;;;;1.27;0.73;;;7.70;55.90;;;6.55;57.30;101686.28;12249311;19;20022;-81
2023/01/06 03:01:21;;;;;;;1.30;0.90;;;7.80;55.90;;;6.58;57.42;101681.00;12252149;19;20366;-81
2023/01/06 03:05:26;;;;;;;2.20;0.85;;;7.80;55.90;;;6.59;57.46;101684.47;12248498;19;20015;-82
2023/01/06 03:09:34;;;;;;;0.75;0.75;;;7.80;55.90;;;6.49;57.42;101668.25;12252540;19;20014;-81
2023/01/06 03:14:12;;;;;;;1.10;0.93;;;7.80;55.90;;;6.59;57.43;101677.53;12248992;19;20023;-81
2023/01/06 03:18:15;;;;;;;2.28;0.77;;;7.80;55.90;;;6.60;57.48;101674.03;12251414;19;20580;-82
2023/01/06 03:22:18;;;;;;;1.23;0.93;;;7.90;55.90;;;6.58;57.56;101660.25;12250319;19;20431;-81
2023/01/06 03:26:20;;;;;;;0.52;0.52;;;7.90;56.00;;;6.61;57.63;101660.16;12251340;19;20382;-81
2023/01/06 03:30:29;;;;;;;0.70;0.70;;;7.90;55.90;;;6.59;57.56;101655.94;12249150;19;20010;-82
2023/01/06 03:35:08;;;;;;;0.65;0.65;;;7.90;55.90;;;6.67;57.75;101671.28;12249132;19;20264;-81
2023/01/06 03:39:16;;;;;;;2.83;0.90;;;7.90;55.90;;;6.60;57.40;101642.06;12251524;19;20015;-81
2023/01/06 03:43:43;;;;;;;2.05;0.77;;;7.90;55.90;;;6.62;57.60;101646.31;12248900;19;20626;-81
2023/01/06 03:48:36;;;;;;;0.75;0.75;;;7.90;55.90;;;6.57;57.69;101636.94;12249305;19;20031;-81
2023/01/06 03:53:08;;;;;;;0.80;0.80;;;8.00;56.00;;;6.68;57.82;101641.88;12246820;19;20357;-82
2023/01/06 03:57:17;;;;;;;1.58;0.68;;;8.00;56.00;;;6.66;57.69;101631.53;12251238;19;20030;-82
2023/01/06 04:01:22;;;;;;;2.72;1.23;;;8.00;56.00;;;6.61;57.58;101608.25;12250891;19;20099;-81
2023/01/06 04:05:26;;;;;;;;;;;8.00;56.00;;;6.72;57.58;101628.75;12247786;19;20345;-81
2023/01/06 04:09:29;;;;;;;0.85;0.70;;;8.00;55.90;;;6.73;57.71;101627.06;12249349;19;19933;-82
2023/01/06 04:13:31;;;;;;;2.28;0.85;;;8.00;56.10;;;6.72;57.58;101609.75;12249302;19;20016;-81
2023/01/06 04:17:34;;;;;;;1.38;0.70;;;8.00;55.90;;;6.79;57.52;101619.09;12245801;19;20030;-82
2023/01/06 04:21:36;;;;;;;0.65;0.65;;;8.00;56.00;;;6.62;57.81;101583.19;12246809;19;20010;-81
2023/01/06 04:25:38;;;;;;;1.48;0.60;;;8.10;56.00;;;6.39;57.61;101553.47;12246997;19;20018;-82
2023/01/06 04:29:52;;;;;;;1.13;0.75;;;8.00;56.00;;;6.81;57.71;101601.75;12245865;19;20039;-81
2023/01/06 04:33:54;;;;;;;1.40;0.73;;;8.20;56.10;;;6.86;57.85;101618.06;12244708;19;20010;-81
2023/01/06 04:37:55;;;;;;;0.85;0.73;;;8.10;56.10;;;6.87;57.82;101615.41;12246813;19;20016;-82
2023/01/06 04:41:57;;;;;;;0.68;0.68;;;8.20;56.10;;;6.90;57.92;101608.44;12248050;19;20014;-81
2023/01/06 04:45:59;;;;;;;0.50;0.50;;;8.20;56.10;;;6.92;57.76;101598.88;12248701;19;20015;-81
2023/01/06 04:50:00;;;;;;;2.10;0.80;;;8.20;56.10;;;6.90;57.89;101585.06;12246497;19;20017;-82
2023/01/06 04:54:03;;;;;;;1.08;0.75;;;8.20;56.20;;;6.93;57.67;101591.03;12246356;19;20006;-81
2023/01/06 04:58:05;;;;;;;0.95;0.68;;;8.20;56.20;;;6.89;57.67;101571.25;12248505;19;20010;-81
2023/01/06 05:02:06;;;;;;;1.88;0.80;;;8.30;56.20;;;6.93;58.05;101572.84;12245069;19;20024;-82
2023/01/06 05:06:11;;;;;;;1.95;0.80;;;8.30;56.20;;;6.99;57.80;101571.84;12245753;19;20034;-81
2023/01/06 05:10:12;;;;;;;1.23;0.98;;;8.30;56.30;;;7.00;57.85;101556.22;12245875;19;20549;-81
2023/01/06 05:14:14;;;;;;;2.80;0.77;;;8.50;56.30;;;6.95;57.91;101541.69;12244897;19;20111;-82
2023/01/06 05:18:16;;;;;;;1.02;0.70;;;8.30;56.20;;;7.00;58.04;101535.47;12247295;19;20081;-81
2023/01/06 05:22:17;;;;;;;1.45;0.52;;;8.30;56.30;;;7.01;57.82;101542.34;12247565;19;20398;-81
2023/01/06 05:26:25;;;;;;;1.67;1.10;;;8.40;56.30;;;7.00;58.12;101532.03;12248794;19;20038;-82
2023/01/06 05:30:27;;;;;;;3.70;0.60;;;8.30;56.40;;;7.09;57.87;101536.94;12251718;19;20501;-81
2023/01/06 05:34:29;;;;;;;1.80;0.75;;;8.40;56.40;;;7.03;58.04;101514.59;12251568;19;20464;-82
2023/01/06 05:38:31;;;;;;;1.48;0.90;;;8.40;56.40;;;7.05;58.06;101509.38;12257912;19;20086;-81
2023/01/06 05:42:33;;;;;;;1.35;0.95;;;8.40;56.40;;;7.12;57.86;101520.44;12256858;19;20031;-81
2023/01/06 05:46:35;;;;;;;1.10;0.88;;;8.50;56.40;;;7.16;57.94;101522.06;12260704;19;20014;-81
2023/01/06 05:50:37;;;;;;;1.20;0.77;;;8.50;56.50;;;7.09;57.93;101501.44;12256350;19;20045;-82
2023/01/06 05:54:39;;;;;;;1.45;0.65;;;8.40;56.50;;;7.10;58.25;101486.69;12253728;19;20022;-81
2023/01/06 05:58:45;;;;;;;1.42;0.88;;;8.50;56.50;;;7.11;58.22;101490.16;12258745;19;20013;-82
2023/01/06 06:02:46;;;;;;;3.78;1.75;;;8.50;56.50;;;7.24;57.97;101504.50;12256891;19;20015;-82
2023/01/06 06:06:48;;;;;;;4.65;2.80;;;8.50;56.60;;;7.21;58.21;101489.88;12257278;19;20006;-81
2023/01/06 06:10:50;;;;;;;2.83;1.90;;;8.60;56.70;;;7.31;58.06;101488.69;12254600;19;20006;-81
2023/01/06 06:14:52;;;;;;;1.52;1.10;;;8.60;56.80;;;7.19;58.27;101464.81;12251632;19;20133;-81
2023/01/06 06:18:57;;;;;;;1.85;1.05;;;8.60;56.90;;;7.35;58.18;101492.06;12258062;19;20747;-80
2023/01/06 06:22:58;;;;;;;1.00;1.00;;;8.60;56.90;;;7.35;58.19;101489.47;12256079;19;20090;-81
2023/01/06 06:27:00;;;;;;;1.95;0.80;;;8.60;57.00;;;7.33;58.33;101473.06;12258064;19;20012;-82
2023/01/06 06:31:07;;;;;;;1.00;0.80;;;8.60;57.10;;;7.42;58.07;101488.34;12253563;19;20003;-81
2023/01/06 06:35:09;;;;;;;1.73;0.60;;;8.70;57.20;;;7.39;58.36;101454.69;12253174;19;20017;-81
2023/01/06 06:39:11;;;;;;;1.73;0.75;;;8.70;57.30;;;7.47;58.23;101459.66;12251816;19;20019;-82
2023/01/06 06:43:12;;;;;;;3.47;1.10;;;8.70;57.30;;;7.45;58.29;101446.72;12256748;19;20408;-82
2023/01/06 06:47:14;;;;;;;0.85;0.85;;;8.70;57.30;;;7.48;58.43;101457.00;12254081;19;20035;-82
2023/01/06 06:51:19;;;;;;;1.60;0.82;;;8.80;57.30;;;7.49;58.20;101463.06;12250906;19;20010;-82
2023/01/06 06:55:21;;;;;;;2.30;1.17;;;8.80;57.40;;;7.56;58.33;101463.69;12249299;19;20017;-82
2023/01/06 06:59:23;;;;;;;2.53;1.00;;;8.80;57.50;;;7.48;58.24;101441.41;12253503;19;20021;-82
2023/01/06 07:03:25;;;;;;;1.30;1.10;;;8.90;57.40;;;7.64;58.32;101459.13;12252698;19;20373;-84
2023/01/06 07:07:27;;;;;;;0.75;0.75;;;8.90;57.60;;;7.66;58.30;101449.53;12254566;19;20086;-82
2023/01/06 07:11:28;;;;;;;1.42;0.80;;;8.90;57.60;;;7.65;58.51;101440.03;12247776;19;20014;-84
2023/01/06 07:15:31;;;;;;;1.08;0.88;;;8.90;57.70;;;7.67;58.36;101440.81;12252955;19;20038;-82
2023/01/06 07:19:32;;;;;;;0.80;0.80;;;9.20;57.80;;;7.63;58.40;101421.03;12250038;19;20101;-82
2023/01/06 07:23:34;;;;;;;1.50;0.70;;;9.00;57.80;;;7.66;58.49;101418.34;12248282;19;20019;-82
2023/01/06 07:27:36;;;;;;;3.78;0.68;;;9.00;57.90;;;7.71;58.62;101422.50;12252635;19;20011;-82
2023/01/06 07:31:38;;;;;;;1.20;0.95;;;9.20;58.10;;;7.75;58.62;101433.66;12246882;19;20007;-82
2023/01/06 07:35:39;;;;;;;2.10;0.90;;;9.00;58.00;;;7.76;58.51;101430.16;12250766;19;20013;-83
2023/01/06 07:39:41;;;;;;;1.27;1.02;;;9.00;58.00;;;7.74;58.72;101427.59;12253824;19;20532;-84
2023/01/06 07:43:43;;;;;;;2.03;1.02;;;9.00;58.10;;;7.78;58.66;101428.34;12251436;19;20022;-82
2023/01/06 07:47:45;;;;;;;1.90;0.88;;;9.10;58.10;;;7.78;58.80;101436.16;12253038;19;20023;-81
2023/01/06 07:51:47;;;;;;;1.35;1.25;;;9.10;58.10;;;7.83;58.64;101426.47;12244707;19;20018;-82
2023/01/06 07:55:52;;;;;;;1.00;0.82;;;9.10;58.70;;;7.72;58.61;101418.13;12248282;19;20713;-81
2023/01/06 07:59:55;;;;;;;1.13;1.05;;;9.10;58.60;;;7.84;58.79;101428.16;12251093;19;20014;-83
2023/01/06 08:03:57;;;;;;;2.10;1.92;;;9.10;58.60;;;7.90;58.91;101430.53;12251524;19;20022;-83
2023/01/06 08:07:58;;;;;;;1.65;1.33;;;9.10;58.70;;;7.91;58.93;101437.47;12251618;19;20416;-83
2023/01/06 08:12:00;;;;;;;2.30;1.52;;;9.20;58.60;;;7.94;58.80;101426.13;12247202;19;20047;-81
2023/01/06 08:16:07;;;;;;;1.40;1.30;;;9.20;59.30;;;7.97;58.83;101441.63;12250415;19;20029;-82
2023/01/06 08:20:09;;;;;;;1.63;1.10;;;9.20;59.00;;;7.84;58.89;101414.31;12251557;19;20469;-82
2023/01/06 08:24:10;;;;;;;2.58;1.42;;;9.20;58.80;;;8.01;59.14;101424.16;12253980;19;20054;-83
2023/01/06 08:28:12;;;;;;;3.13;1.35;;;9.30;59.20;;;8.07;59.06;101408.31;12252132;19;20026;-83
2023/01/06 08:32:14;;;;;;;2.20;1.10;;;9.30;59.20;;;8.02;58.97;101394.63;12253336;19;20013;-82
2023/01/06 08:36:18;;;;;;;1.40;1.30;;;9.30;59.20;;;8.06;59.04;101396.22;12254140;19;20014;-83
2023/01/06 08:40:19;;;;;;;2.65;2.08;;;9.50;59.30;;;7.91;59.22;101374.19;12257126;19;20473;-83
2023/01/06 08:44:21;;;;;;;3.90;2.58;;;9.40;59.00;;;8.09;59.21;101396.13;12249680;19;20006;-83
2023/01/06 08:48:22;;;;;;;3.60;2.33;;;9.60;59.20;;;8.15;59.24;101390.69;12252738;19;20014;-83
2023/01/06 08:52:24;;;;;;;1.67;1.50;;;9.40;59.00;;;8.08;59.13;101368.44;12236026;19;20023;-82
2023/01/06 08:56:29;;;;;;;4.78;3.35;;;9.50;59.30;;;8.20;59.26;101384.44;12246475;19;20712;-84
2023/01/06 09:00:31;;;;;;;10.23;3.90;;;9.50;59.10;;;8.26;59.34;101382.53;12242305;19;20011;-82
2023/01/06 09:04:32;;;;;;;5.63;3.00;;;9.50;59.20;;;8.23;59.22;101367.03;12249324;19;20003;-82
2023/01/06 09:08:34;;;;;;;5.72;2.80;;;9.50;59.20;;;8.05;59.19;101322.56;12259666;19;20022;-82
2023/01/06 09:12:37;;;;;;;5.90;3.38;;;9.60;59.50;;;8.38;59.22;101372.53;12256452;19;20375;-84
2023/01/06 09:16:39;;;;;;;9.98;4.68;;;9.60;59.40;;;8.38;59.49;101349.13;12258455;19;20035;-84
2023/01/06 09:20:41;;;;;;;4.80;3.30;;;9.70;59.70;;;8.32;59.49;101325.94;12260000;19;20014;-83
2023/01/06 09:24:43;;;;;;;22.02;9.80;;;9.70;59.90;;;8.40;59.37;101349.97;12253739;19;20030;-82
2023/01/06 09:28:46;;;;;;;23.33;11.35;;;9.70;59.70;;;8.44;59.44;101368.06;12259681;19;20473;-82
2023/01/06 09:32:47;;;;;;;9.60;5.45;;;9.70;59.60;;;8.44;59.38;101358.50;12261569;19;20011;-82
2023/01/06 09:36:49;;;;;;;6.00;3.80;;;9.70;59.50;;;8.51;59.58;101361.75;12269347;19;20018;-82
2023/01/06 09:41:23;;;;;;;4.57;2.22;;;9.80;59.80;;;8.36;59.63;101326.66;12268104;19;20007;-82
2023/01/06 09:45:48;;;;;;;3.95;2.00;;;9.80;59.80;;;8.47;59.53;101328.91;12265962;19;20500;-83
2023/01/06 09:49:56;;;;;;;2.53;1.83;;;9.80;59.90;;;8.66;59.53;101348.13;12264379;19;20007;-82
2023/01/06 09:54:12;;;;;;;1.90;1.58;;;9.90;59.80;;;8.66;59.54;101329.06;12253941;19;20019;-82
2023/01/06 09:58:20;;;;;;;2.70;2.20;;;9.90;59.70;;;8.75;59.62;101326.97;12260197;19;20021;-82
2023/01/06 10:02:37;;;;;;;2.17;1.98;;;10.00;59.70;;;8.71;59.68;101322.78;12256560;19;20043;-82
2023/01/06 10:07:13;;;;;;;3.70;2.00;;;10.10;60.80;;;8.82;59.76;101331.03;12261009;19;20021;-82
2023/01/06 10:11:49;;;;;;;1.65;1.55;;;10.10;60.20;;;8.85;59.74;101298.81;12256039;19;20028;-82
2023/01/06 10:16:23;;;;;;;1.52;1.35;;;10.10;60.10;;;8.91;59.87;101296.00;12258927;19;20015;-82
2023/01/06 10:21:06;;;;;;;3.25;2.00;;;10.20;60.00;;;8.94;59.88;101277.63;12261607;19;20392;-83
2023/01/06 10:25:21;;;;;;;2.20;2.00;;;10.20;60.60;;;9.01;59.97;101286.03;12251711;19;20007;-83
2023/01/06 10:29:31;;;;;;;2.70;2.07;;;10.30;60.20;;;8.95;59.99;101257.66;12249405;19;20006;-82
2023/01/06 10:33:39;;;;;;;2.50;1.80;;;10.30;60.60;;;9.05;59.97;101265.03;12248625;19;21293;-83
2023/01/06 10:37:45;;;;;;;2.55;1.90;;;10.30;60.30;;;8.91;59.91;101220.47;12254569;19;20387;-82
2023/01/06 10:46:34;;;;;;;3.00;2.30;;;10.40;61.60;;;9.24;59.90;101251.25;12252729;19;20361;-82
2023/01/06 10:50:36;;;;;;;2.33;2.10;;;10.50;61.10;;;9.26;60.14;101221.63;12253936;19;20015;-83
2023/01/06 10:54:40;;;;;;;2.42;2.15;;;10.60;61.00;;;9.29;60.06;101208.47;12249288;19;20023;-82
2023/01/06 10:59:06;;;;;;;3.50;2.60;;;10.60;61.10;;;9.44;60.03;101213.94;12259163;19;20015;-82
2023/01/06 11:03:12;;;;;;;2.03;1.83;;;10.70;61.60;;;9.49;60.21;101209.38;12260397;19;20022;-83
2023/01/06 11:07:13;;;;;;;1.95;1.63;;;10.80;61.70;;;9.49;60.04;101191.97;12260632;19;20453;-82
2023/01/06 11:11:18;;;;;;;2.15;1.88;;;10.80;61.50;;;9.61;60.27;101207.97;12257343;19;20394;-82
2023/01/06 11:15:34;;;;;;;3.45;2.03;;;10.90;62.40;;;9.64;60.14;101195.69;12255679;19;20352;-83
2023/01/06 11:19:44;;;;;;;2.80;2.00;;;10.90;61.90;;;9.71;60.33;101194.47;12253082;19;20019;-82
2023/01/06 11:23:48;;;;;;;2.10;1.67;;;11.00;61.90;;;9.84;60.20;101188.72;12251475;19;20728;-82
2023/01/06 11:28:08;;;;;;;2.95;2.50;;;11.10;61.60;;;9.91;60.43;101191.00;12252255;19;20512;-82
2023/01/06 11:32:28;;;;;;;2.58;2.10;;;11.20;62.00;;;9.93;60.26;101181.31;12253473;19;20032;-82
2023/01/06 11:36:32;;;;;;;1.80;1.58;;;11.30;62.10;;;10.05;60.47;101174.72;12258616;19;20640;-82
2023/01/06 11:40:36;;;;;;;3.00;1.98;;;11.30;61.90;;;10.05;60.33;101171.25;12252967;19;20129;-82
2023/01/06 11:44:41;;;;;;;2.10;1.90;;;11.40;61.90;;;10.22;60.56;101186.97;12256747;19;21237;-82
2023/01/06 11:48:57;;;;;;;2.27;2.10;;;11.50;61.80;;;10.17;60.49;101168.91;12260619;19;20034;-83
2023/01/06 11:53:17;;;;;;;2.30;2.10;;;11.60;62.50;;;10.31;60.60;101181.34;12261474;19;20010;-82
2023/01/06 11:57:47;;;;;;;2.53;2.33;;;11.60;62.30;;;10.37;60.69;101164.59;12260148;19;20018;-83
2023/01/06 12:01:59;;;;;;;2.47;2.10;;;11.70;62.10;;;10.39;60.68;101168.78;12253094;19;20030;-83
2023/01/06 12:06:13;;;;;;;2.55;2.35;;;11.70;62.20;;;10.52;60.52;101179.50;12252507;19;20031;-81
2023/01/06 12:10:26;;;;;;;2.85;2.20;;;11.80;62.40;;;10.27;60.40;101118.91;12247198;19;20320;-82
2023/01/06 12:14:37;;;;;;;1.88;1.77;;;11.80;62.00;;;10.48;60.56;101120.53;12246717;19;20021;-83
2023/01/06 12:18:40;;;;;;;2.13;2.03;;;11.90;62.30;;;10.62;60.65;101136.34;12247913;19;20047;-81
2023/01/06 12:23:00;;;;;;;2.28;2.08;;;11.90;62.20;;;10.72;60.71;101146.34;12247422;19;20358;-83
2023/01/06 12:27:04;;;;;;;2.20;2.00;;;12.00;62.60;;;10.75;60.73;101130.53;12262659;19;20082;-82
2023/01/06 12:32:17;;;;;;;3.03;2.07;;;12.00;62.60;;;10.84;60.96;101143.13;12242711;19;20030;-81
2023/01/06 12:36:58;;;;;;;2.50;2.10;;;12.10;63.20;;;10.92;60.75;101130.53;12246227;19;20014;-81
2023/01/06 12:41:23;;;;;;;2.00;1.80;;;12.20;63.20;;;11.00;60.92;101135.38;12246069;19;20015;-81
2023/01/06 12:46:03;;;;;;;1.92;1.83;;;12.30;63.30;;;11.00;60.93;101114.47;12244100;19;20018;-82
2023/01/06 12:50:37;;;;;;;1.90;1.70;;;12.30;63.60;;;11.13;60.83;101119.94;12242892;19;20353;-81
2023/01/06 12:54:41;;;;;;;2.70;1.85;;;12.40;63.50;;;11.23;60.97;101119.38;12244662;19;20047;-81
2023/01/06 12:59:11;;;;;;;1.83;1.73;;;12.50;64.20;;;11.27;61.08;101123.50;12245607;19;20041;-81
2023/01/06 13:03:32;;;;;;;1.98;1.35;;;12.50;64.00;;;11.27;61.06;101110.44;12243084;19;20026;-81
2023/01/06 13:07:57;;;;;;;1.83;1.55;;;12.60;64.10;;;11.34;60.97;101108.38;12244652;19;20031;-81
2023/01/06 13:12:38;;;;;;;1.30;1.30;;;12.70;63.70;;;11.51;61.01;101121.38;12241903;19;20029;-82
2023/01/06 13:16:54;;;;;;;1.38;1.30;;;12.70;65.00;;;11.58;61.10;101128.91;12249288;19;20018;-81
2023/01/06 13:21:18;;;;;;;2.42;1.52;;;12.80;63.70;;;11.55;61.08;101113.38;12249872;19;20021;-82
2023/01/06 13:25:52;;;;;;;1.15;1.10;;;12.80;63.80;;;11.69;61.12;101126.56;12243403;19;20011;-81
2023/01/06 13:30:34;;;;;;;1.15;1.08;;;13.00;63.70;;;11.73;61.13;101131.56;12245285;19;20023;-81
2023/01/06 13:35:03;;;;;;;1.25;1.10;;;13.00;63.70;;;11.79;61.12;101122.53;12247865;19;20013;-82
2023/01/06 13:39:15;;;;;;;1.20;1.10;;;13.00;64.10;;;11.77;61.04;101113.91;12248557;19;20014;-81
2023/01/06 13:43:29;;;;;;;1.30;1.20;;;13.10;63.30;;;11.80;61.13;101118.13;12244362;19;20015;-82
2023/01/06 13:47:31;;;;;;;1.55;1.20;;;13.10;63.10;;;11.96;61.18;101137.34;12248833;19;20013;-81
2023/01/06 13:51:37;;;;;;;1.05;1.05;;;13.20;63.00;;;11.94;61.20;101132.22;12254106;19;20045;-82
2023/01/06 13:55:39;;;;;;;1.52;1.15;;;13.20;63.30;;;11.95;61.02;101128.66;12260603;19;20031;-82
2023/01/06 14:00:12;;;;;;;1.20;0.98;;;13.20;63.10;;;11.96;61.16;101137.34;12262658;19;20497;-82
2023/01/06 14:04:35;;;;;;;0.98;0.90;;;13.30;63.30;;;12.10;61.19;101162.78;12260321;19;20038;-81
2023/01/06 14:08:47;;;;;;;1.77;1.67;;;13.30;63.10;;;12.13;61.31;101163.47;12262497;19;20026;-82
2023/01/06 14:12:48;;;;;;;1.50;1.40;;;13.40;62.90;;;12.18;61.24;101165.84;12257746;19;20017;-82
2023/01/06 14:16:52;;;;;;;2.20;1.20;;;13.40;62.70;;;12.15;61.11;101147.66;12260410;19;20014;-82
2023/01/06 14:21:15;;;;;;;1.55;1.45;;;13.40;62.60;;;12.23;61.21;101161.16;12261747;19;20010;-82
2023/01/06 14:25:22;;;;;;;9.82;8.20;;;13.50;62.80;;;12.21;61.15;101160.44;12256894;19;20360;-82
2023/01/06 14:29:44;;;;;;;6.60;6.00;;;13.50;62.60;;;12.31;61.12;101165.97;12264063;19;20030;-81
2023/01/06 14:34:02;;;;;;;2.83;2.63;;;13.50;62.50;;;12.33;61.22;101170.19;12258359;19;20048;-81
2023/01/06 14:38:12;;;;;;;1.45;1.35;;;13.50;62.30;;;12.30;61.17;101153.81;12261718;19;20511;-81
2023/01/06 14:42:41;;;;;;;1.38;1.08;;;13.60;62.20;;;12.31;61.02;101163.38;12257778;19;20498;-82
2023/01/06 14:46:51;;;;;;;0.80;0.80;;;13.60;62.10;;;12.30;61.09;101165.13;12259077;19;20103;-81
2023/01/06 14:50:57;;;;;;;0.90;0.90;;;13.60;62.00;;;12.44;61.13;101179.25;12259406;19;20481;-82
2023/01/06 14:55:00;;;;;;;1.10;0.95;;;13.70;61.90;;;12.47;61.25;101181.69;12257630;19;20027;-82
2023/01/06 14:59:11;;;;;;;1.17;0.95;;;13.70;62.00;;;12.50;61.16;101192.00;12260091;19;20022;-82
2023/01/06 15:03:23;;;;;;;0.80;0.80;;;13.70;61.90;;;12.46;61.08;101196.56;12256905;19;20010;-81
2023/01/06 15:07:25;;;;;;;1.10;1.00;;;13.70;62.00;;;12.49;61.23;101182.47;12258707;19;20034;-82
2023/01/06 15:11:32;;;;;;;1.05;0.95;;;13.70;61.90;;;12.46;61.25;101196.56;12257203;19;20010;-82
2023/01/06 15:15:36;;;;;;;2.08;1.50;;;13.70;62.00;;;12.58;61.19;101218.59;12257291;19;20018;-82
2023/01/06 15:19:43;;;;;;;2.33;1.85;;;13.80;62.20;;;12.48;61.20;101209.59;12260471;19;20014;-81
2023/01/06 15:23:49;;;;;;;1.92;1.23;;;13.80;62.20;;;12.52;61.24;101217.19;12254885;19;20011;-82
2023/01/06 15:27:54;;;;;;;1.20;1.10;;;13.80;62.10;;;12.61;61.11;101226.31;12258838;19;20010;-82
2023/01/06 15:31:56;;;;;;;1.13;0.97;;;13.80;62.10;;;12.56;61.03;101210.84;12254575;19;20084;-82
2023/01/06 15:35:59;;;;;;;1.10;1.00;;;13.80;62.10;;;12.50;61.12;101199.84;12257766;19;20017;-82
2023/01/06 15:40:04;;;;;;;1.70;1.30;;;13.80;62.00;;;12.61;61.23;101239.44;12257429;19;20057;-81
2023/01/06 15:44:32;;;;;;;3.33;1.40;;;13.80;61.90;;;12.59;61.10;101249.13;12254589;19;20035;-82
2023/01/06 15:48:40;;;;;;;1.00;1.00;;;13.80;61.70;;;12.56;61.21;101239.66;12258890;19;20021;-82
2023/01/06 15:52:46;;;;;;;0.95;0.95;;;13.80;61.60;;;12.57;61.09;101251.00;12250906;19;20014;-82
2023/01/06 15:56:49;;;;;;;1.50;1.08;;;13.80;61.40;;;12.56;61.19;101252.78;12256449;19;20044;-82
2023/01/06 16:01:14;;;;;;;1.98;1.83;;;13.80;61.30;;;12.50;61.08;101250.50;12254462;19;20078;-81
2023/01/06 16:05:39;;;;;;;1.50;1.40;;;13.70;61.20;;;12.52;61.17;101258.25;12248454;19;20014;-81
2023/01/06 16:09:40;;;;;;;2.63;1.10;;;13.70;61.10;;;12.42;61.06;101242.19;12254480;19;20011;-82
2023/01/06 16:13:57;;;;;;;1.65;1.55;;;13.70;61.00;;;12.53;61.03;101265.16;12250396;19;20015;-82
2023/01/06 16:17:58;;;;;;;1.10;1.00;;;13.70;61.10;;;12.51;61.01;101256.56;12256411;19;20417;-82
2023/01/06 16:22:15;;;;;;;1.20;1.10;;;13.70;61.00;;;12.47;61.02;101271.59;12251149;19;20014;-82
2023/01/06 16:26:20;;;;;;;0.98;0.93;;;13.70;60.90;;;12.45;61.01;101269.97;12254664;19;20279;-81
2023/01/06 16:30:35;;;;;;;1.52;1.08;;;13.60;60.80;;;12.47;61.17;101283.84;12251949;19;20035;-82
2023/01/06 16:34:36;;;;;;;0.93;0.80;;;13.60;60.80;;;12.52;61.04;101300.16;12250956;19;20018;-81
2023/01/06 16:38:38;;;;;;;1.98;1.30;;;13.60;60.80;;;12.51;61.04;101298.50;12257675;19;20010;-82
2023/01/06 16:42:42;;;;;;;1.60;1.50;;;13.60;60.80;;;12.44;61.15;101284.03;12255159;19;20043;-83
2023/01/06 16:46:43;;;;;;;1.55;1.45;;;13.60;61.40;;;12.50;61.07;101302.03;12254494;19;20680;-82
2023/01/06 16:50:51;;;;;;;2.15;1.92;;;13.70;60.80;;;12.40;61.17;101289.44;12256853;19;20013;-82
2023/01/06 16:54:55;;;;;;;3.28;2.17;;;13.60;60.60;;;12.43;61.01;101300.69;12254191;19;20355;-82
2023/01/06 16:58:57;;;;;;;2.70;2.08;;;13.60;60.50;;;12.48;60.88;101317.84;12256819;19;20045;-82
2023/01/06 17:02:59;;;;;;;2.03;1.60;;;13.60;60.50;;;12.42;61.02;101305.03;12253969;19;20007;-82
2023/01/06 17:07:02;;;;;;;1.65;1.33;;;13.60;60.50;;;12.23;61.05;101276.38;12253029;19;20010;-82
2023/01/06 17:11:20;;;;;;;2.53;1.70;;;13.50;60.40;;;12.38;61.07;101309.63;12253843;19;20418;-81
2023/01/06 17:15:22;;;;;;;1.10;1.02;;;13.50;60.50;;;12.42;60.88;101322.53;12251445;19;20571;-81
2023/01/06 17:19:27;;;;;;;1.90;1.70;;;13.50;60.40;;;12.42;60.97;101317.31;12251902;19;20025;-82
2023/01/06 17:23:42;;;;;;;1.88;1.67;;;13.50;60.40;;;12.37;61.02;101331.50;12249859;19;20006;-82
2023/01/06 17:27:44;;;;;;;1.85;1.65;;;13.50;60.40;;;12.39;60.88;101337.50;12266838;19;20010;-82